sensor_id;sensor_type;location;lat;lon;timestamp;P1;durP1;ratioP1;P2;durP2;ratioP2
38399;SDS011;24180;42.676;23.320;2024-02-26T00:00:00;29.23;;;15.75;;
38399;SDS011;24180;42.676;23.320;2024-02-26T00:02:25;27.98;;;14.60;;
38399;SDS011;24180;42.676;23.320;2024-02-26T00:04:51;27.33;;;15.00;;
38399;SDS011;24180;42.676;23.320;2024-02-26T00:07:16;26.75;;;13.95;;
38399;SDS011;24180;42.676;23.320;2024-02-26T00:09:42;28.50;;;14.60;;
38399;SDS011;24180;42.676;23.320;2024-02-26T00:12:07;36.92;;;16.15;;
38399;SDS011;24180;42.676;23.320;2024-02-26T00:14:33;28.83;;;16.00;;
38399;SDS011;24180;42.676;23.320;2024-02-26T00:16:59;30.02;;;15.32;;
38399;SDS011;24180;42.676;23.320;2024-02-26T00:19:25;31.15;;;15.82;;
38399;SDS011;24180;42.676;23.320;2024-02-26T00:21:50;31.88;;;15.52;;
38399;SDS011;24180;42.676;23.320;2024-02-26T00:24:16;35.17;;;14.88;;
38399;SDS011;24180;42.676;23.320;2024-02-26T00:26:41;30.70;;;15.05;;
38399;SDS011;24180;42.676;23.320;2024-02-26T00:29:07;32.53;;;14.85;;
38399;SDS011;24180;42.676;23.320;2024-02-26T00:31:32;33.08;;;15.45;;
38399;SDS011;24180;42.676;23.320;2024-02-26T00:33:58;27.77;;;14.90;;
38399;SDS011;24180;42.676;23.320;2024-02-26T00:36:23;28.75;;;14.60;;
38399;SDS011;24180;42.676;23.320;2024-02-26T00:38:49;30.35;;;14.25;;
38399;SDS011;24180;42.676;23.320;2024-02-26T00:41:17;27.33;;;13.95;;
38399;SDS011;24180;42.676;23.320;2024-02-26T00:43:43;26.65;;;14.50;;
38399;SDS011;24180;42.676;23.320;2024-02-26T00:46:09;30.38;;;13.35;;
38399;SDS011;24180;42.676;23.320;2024-02-26T00:48:35;25.83;;;13.13;;
38399;SDS011;24180;42.676;23.320;2024-02-26T00:51:00;25.40;;;13.60;;
38399;SDS011;24180;42.676;23.320;2024-02-26T00:53:26;30.38;;;12.23;;
38399;SDS011;24180;42.676;23.320;2024-02-26T00:55:51;21.77;;;11.73;;
38399;SDS011;24180;42.676;23.320;2024-02-26T00:58:17;25.65;;;11.70;;
38399;SDS011;24180;42.676;23.320;2024-02-26T01:00:43;24.80;;;11.88;;
38399;SDS011;24180;42.676;23.320;2024-02-26T01:03:08;24.20;;;12.02;;
38399;SDS011;24180;42.676;23.320;2024-02-26T01:05:35;23.55;;;12.05;;
38399;SDS011;24180;42.676;23.320;2024-02-26T01:08:01;24.67;;;12.23;;
38399;SDS011;24180;42.676;23.320;2024-02-26T01:10:26;25.17;;;12.63;;
38399;SDS011;24180;42.676;23.320;2024-02-26T01:12:52;21.77;;;11.50;;
38399;SDS011;24180;42.676;23.320;2024-02-26T01:15:17;20.15;;;12.45;;
38399;SDS011;24180;42.676;23.320;2024-02-26T01:17:47;25.90;;;13.10;;
38399;SDS011;24180;42.676;23.320;2024-02-26T01:20:12;31.77;;;13.35;;
38399;SDS011;24180;42.676;23.320;2024-02-26T01:22:38;28.17;;;13.80;;
38399;SDS011;24180;42.676;23.320;2024-02-26T01:25:05;27.05;;;12.57;;
38399;SDS011;24180;42.676;23.320;2024-02-26T01:32:23;19.35;;;9.57;;
38399;SDS011;24180;42.676;23.320;2024-02-26T01:34:48;21.27;;;10.25;;
38399;SDS011;24180;42.676;23.320;2024-02-26T01:37:14;15.88;;;9.93;;
38399;SDS011;24180;42.676;23.320;2024-02-26T01:39:39;26.33;;;12.52;;
38399;SDS011;24180;42.676;23.320;2024-02-26T01:42:06;25.80;;;13.00;;
38399;SDS011;24180;42.676;23.320;2024-02-26T01:44:32;23.05;;;12.35;;
38399;SDS011;24180;42.676;23.320;2024-02-26T01:46:58;24.58;;;12.65;;
38399;SDS011;24180;42.676;23.320;2024-02-26T01:49:26;22.40;;;12.85;;
38399;SDS011;24180;42.676;23.320;2024-02-26T01:51:52;24.30;;;12.93;;
38399;SDS011;24180;42.676;23.320;2024-02-26T01:54:18;27.08;;;13.63;;
38399;SDS011;24180;42.676;23.320;2024-02-26T01:56:43;21.90;;;12.60;;
38399;SDS011;24180;42.676;23.320;2024-02-26T01:59:09;25.83;;;14.05;;
38399;SDS011;24180;42.676;23.320;2024-02-26T02:01:35;29.55;;;14.63;;
38399;SDS011;24180;42.676;23.320;2024-02-26T02:04:01;27.17;;;13.70;;
38399;SDS011;24180;42.676;23.320;2024-02-26T02:06:27;26.13;;;12.73;;
38399;SDS011;24180;42.676;23.320;2024-02-26T02:08:56;25.02;;;12.93;;
38399;SDS011;24180;42.676;23.320;2024-02-26T02:11:21;26.95;;;13.10;;
38399;SDS011;24180;42.676;23.320;2024-02-26T02:13:47;24.67;;;12.80;;
38399;SDS011;24180;42.676;23.320;2024-02-26T02:16:13;23.42;;;11.98;;
38399;SDS011;24180;42.676;23.320;2024-02-26T02:18:38;26.08;;;11.90;;
38399;SDS011;24180;42.676;23.320;2024-02-26T02:21:04;24.25;;;11.55;;
38399;SDS011;24180;42.676;23.320;2024-02-26T02:23:29;24.42;;;11.52;;
38399;SDS011;24180;42.676;23.320;2024-02-26T02:25:56;24.00;;;11.88;;
38399;SDS011;24180;42.676;23.320;2024-02-26T02:28:22;18.63;;;10.90;;
38399;SDS011;24180;42.676;23.320;2024-02-26T02:30:50;25.70;;;10.55;;
38399;SDS011;24180;42.676;23.320;2024-02-26T02:33:16;19.75;;;10.07;;
38399;SDS011;24180;42.676;23.320;2024-02-26T02:35:42;20.75;;;10.68;;
38399;SDS011;24180;42.676;23.320;2024-02-26T02:38:08;16.35;;;10.05;;
38399;SDS011;24180;42.676;23.320;2024-02-26T02:40:33;17.75;;;10.80;;
38399;SDS011;24180;42.676;23.320;2024-02-26T02:42:58;18.83;;;11.45;;
38399;SDS011;24180;42.676;23.320;2024-02-26T02:45:25;22.05;;;10.68;;
38399;SDS011;24180;42.676;23.320;2024-02-26T02:47:50;19.52;;;10.93;;
38399;SDS011;24180;42.676;23.320;2024-02-26T02:50:16;15.57;;;9.90;;
38399;SDS011;24180;42.676;23.320;2024-02-26T02:52:41;21.50;;;10.90;;
38399;SDS011;24180;42.676;23.320;2024-02-26T02:55:07;21.13;;;10.63;;
38399;SDS011;24180;42.676;23.320;2024-02-26T02:57:33;20.55;;;10.63;;
38399;SDS011;24180;42.676;23.320;2024-02-26T02:59:58;18.33;;;10.65;;
38399;SDS011;24180;42.676;23.320;2024-02-26T03:02:24;18.38;;;9.73;;
38399;SDS011;24180;42.676;23.320;2024-02-26T03:04:50;22.77;;;9.90;;
38399;SDS011;24180;42.676;23.320;2024-02-26T03:07:15;17.33;;;9.30;;
38399;SDS011;24180;42.676;23.320;2024-02-26T03:09:41;16.55;;;9.57;;
38399;SDS011;24180;42.676;23.320;2024-02-26T03:12:06;18.17;;;9.80;;
38399;SDS011;24180;42.676;23.320;2024-02-26T03:14:32;17.45;;;9.82;;
38399;SDS011;24180;42.676;23.320;2024-02-26T03:16:57;16.40;;;9.07;;
38399;SDS011;24180;42.676;23.320;2024-02-26T03:19:23;19.02;;;8.98;;
38399;SDS011;24180;42.676;23.320;2024-02-26T03:21:48;21.80;;;9.80;;
38399;SDS011;24180;42.676;23.320;2024-02-26T03:24:14;15.95;;;9.75;;
38399;SDS011;24180;42.676;23.320;2024-02-26T03:26:39;18.52;;;9.65;;
38399;SDS011;24180;42.676;23.320;2024-02-26T03:29:05;16.20;;;9.75;;
38399;SDS011;24180;42.676;23.320;2024-02-26T03:31:31;20.00;;;10.07;;
38399;SDS011;24180;42.676;23.320;2024-02-26T03:33:56;16.45;;;10.20;;
38399;SDS011;24180;42.676;23.320;2024-02-26T03:36:22;18.48;;;10.05;;
38399;SDS011;24180;42.676;23.320;2024-02-26T03:38:48;20.10;;;9.88;;
38399;SDS011;24180;42.676;23.320;2024-02-26T03:41:14;17.45;;;9.40;;
38399;SDS011;24180;42.676;23.320;2024-02-26T03:43:39;18.27;;;10.07;;
38399;SDS011;24180;42.676;23.320;2024-02-26T03:46:08;18.98;;;10.30;;
38399;SDS011;24180;42.676;23.320;2024-02-26T03:48:36;16.48;;;10.13;;
38399;SDS011;24180;42.676;23.320;2024-02-26T03:51:01;20.45;;;10.80;;
38399;SDS011;24180;42.676;23.320;2024-02-26T03:53:27;17.83;;;10.05;;
38399;SDS011;24180;42.676;23.320;2024-02-26T03:55:53;18.25;;;9.88;;
38399;SDS011;24180;42.676;23.320;2024-02-26T03:58:20;21.58;;;10.75;;
38399;SDS011;24180;42.676;23.320;2024-02-26T04:00:46;18.90;;;10.15;;
38399;SDS011;24180;42.676;23.320;2024-02-26T04:03:12;22.80;;;11.95;;
38399;SDS011;24180;42.676;23.320;2024-02-26T04:05:38;24.25;;;11.95;;
38399;SDS011;24180;42.676;23.320;2024-02-26T04:08:04;24.20;;;12.35;;
38399;SDS011;24180;42.676;23.320;2024-02-26T04:10:32;26.13;;;12.95;;
38399;SDS011;24180;42.676;23.320;2024-02-26T04:12:59;25.33;;;13.00;;
38399;SDS011;24180;42.676;23.320;2024-02-26T04:15:25;23.10;;;11.52;;
38399;SDS011;24180;42.676;23.320;2024-02-26T04:17:50;24.02;;;11.88;;
38399;SDS011;24180;42.676;23.320;2024-02-26T04:20:16;21.35;;;11.20;;
38399;SDS011;24180;42.676;23.320;2024-02-26T04:22:42;18.02;;;10.98;;
38399;SDS011;24180;42.676;23.320;2024-02-26T04:25:07;23.70;;;11.98;;
38399;SDS011;24180;42.676;23.320;2024-02-26T04:27:33;19.00;;;11.07;;
38399;SDS011;24180;42.676;23.320;2024-02-26T04:29:59;22.50;;;11.77;;
38399;SDS011;24180;42.676;23.320;2024-02-26T04:32:24;23.40;;;11.45;;
38399;SDS011;24180;42.676;23.320;2024-02-26T04:34:50;23.90;;;12.73;;
38399;SDS011;24180;42.676;23.320;2024-02-26T04:37:15;25.45;;;12.15;;
38399;SDS011;24180;42.676;23.320;2024-02-26T04:39:41;26.20;;;13.60;;
38399;SDS011;24180;42.676;23.320;2024-02-26T04:42:06;26.48;;;14.10;;
38399;SDS011;24180;42.676;23.320;2024-02-26T04:44:32;27.80;;;14.15;;
38399;SDS011;24180;42.676;23.320;2024-02-26T04:46:58;25.10;;;13.65;;
38399;SDS011;24180;42.676;23.320;2024-02-26T04:49:23;25.98;;;13.60;;
38399;SDS011;24180;42.676;23.320;2024-02-26T04:51:49;26.80;;;13.35;;
38399;SDS011;24180;42.676;23.320;2024-02-26T04:54:14;27.38;;;14.45;;
38399;SDS011;24180;42.676;23.320;2024-02-26T04:56:40;27.88;;;14.30;;
38399;SDS011;24180;42.676;23.320;2024-02-26T04:59:05;29.45;;;14.40;;
38399;SDS011;24180;42.676;23.320;2024-02-26T05:01:31;28.10;;;15.05;;
38399;SDS011;24180;42.676;23.320;2024-02-26T05:03:56;28.25;;;14.43;;
38399;SDS011;24180;42.676;23.320;2024-02-26T05:06:22;30.08;;;15.68;;
38399;SDS011;24180;42.676;23.320;2024-02-26T05:08:47;32.45;;;14.90;;
38399;SDS011;24180;42.676;23.320;2024-02-26T05:11:13;28.52;;;14.85;;
38399;SDS011;24180;42.676;23.320;2024-02-26T05:13:38;25.35;;;13.40;;
38399;SDS011;24180;42.676;23.320;2024-02-26T05:16:04;28.50;;;14.20;;
38399;SDS011;24180;42.676;23.320;2024-02-26T05:18:30;24.75;;;13.95;;
38399;SDS011;24180;42.676;23.320;2024-02-26T05:20:55;27.65;;;15.25;;
38399;SDS011;24180;42.676;23.320;2024-02-26T05:23:21;29.55;;;15.65;;
38399;SDS011;24180;42.676;23.320;2024-02-26T05:25:46;31.25;;;14.25;;
38399;SDS011;24180;42.676;23.320;2024-02-26T05:28:13;23.23;;;13.90;;
38399;SDS011;24180;42.676;23.320;2024-02-26T05:30:40;30.38;;;14.93;;
38399;SDS011;24180;42.676;23.320;2024-02-26T05:33:06;29.02;;;15.32;;
38399;SDS011;24180;42.676;23.320;2024-02-26T05:35:32;30.02;;;14.20;;
38399;SDS011;24180;42.676;23.320;2024-02-26T05:37:57;31.30;;;15.00;;
38399;SDS011;24180;42.676;23.320;2024-02-26T05:40:22;30.80;;;14.90;;
38399;SDS011;24180;42.676;23.320;2024-02-26T05:42:48;31.67;;;13.40;;
38399;SDS011;24180;42.676;23.320;2024-02-26T05:45:14;25.38;;;13.57;;
38399;SDS011;24180;42.676;23.320;2024-02-26T05:47:39;29.85;;;14.25;;
38399;SDS011;24180;42.676;23.320;2024-02-26T05:50:08;23.25;;;13.10;;
38399;SDS011;24180;42.676;23.320;2024-02-26T05:52:38;23.80;;;13.45;;
38399;SDS011;24180;42.676;23.320;2024-02-26T05:55:04;24.38;;;13.13;;
38399;SDS011;24180;42.676;23.320;2024-02-26T05:57:30;25.00;;;13.18;;
38399;SDS011;24180;42.676;23.320;2024-02-26T05:59:56;28.02;;;15.15;;
38399;SDS011;24180;42.676;23.320;2024-02-26T06:02:22;29.50;;;14.77;;
38399;SDS011;24180;42.676;23.320;2024-02-26T06:04:47;27.75;;;13.88;;
38399;SDS011;24180;42.676;23.320;2024-02-26T06:07:13;22.92;;;13.18;;
38399;SDS011;24180;42.676;23.320;2024-02-26T06:09:38;28.83;;;14.70;;
38399;SDS011;24180;42.676;23.320;2024-02-26T06:12:04;27.50;;;15.80;;
38399;SDS011;24180;42.676;23.320;2024-02-26T06:14:30;35.80;;;14.68;;
38399;SDS011;24180;42.676;23.320;2024-02-26T06:16:56;27.45;;;15.75;;
38399;SDS011;24180;42.676;23.320;2024-02-26T06:19:21;26.38;;;15.18;;
38399;SDS011;24180;42.676;23.320;2024-02-26T06:21:47;28.67;;;15.85;;
38399;SDS011;24180;42.676;23.320;2024-02-26T06:24:12;28.33;;;15.02;;
38399;SDS011;24180;42.676;23.320;2024-02-26T06:26:38;31.15;;;15.05;;
38399;SDS011;24180;42.676;23.320;2024-02-26T06:29:03;27.20;;;14.40;;
38399;SDS011;24180;42.676;23.320;2024-02-26T06:31:29;25.35;;;13.13;;
38399;SDS011;24180;42.676;23.320;2024-02-26T06:33:54;16.70;;;8.93;;
38399;SDS011;24180;42.676;23.320;2024-02-26T06:36:20;21.08;;;11.23;;
38399;SDS011;24180;42.676;23.320;2024-02-26T06:38:47;17.70;;;9.38;;
38399;SDS011;24180;42.676;23.320;2024-02-26T06:41:14;18.55;;;9.57;;
38399;SDS011;24180;42.676;23.320;2024-02-26T06:43:39;15.23;;;8.40;;
38399;SDS011;24180;42.676;23.320;2024-02-26T06:46:05;17.63;;;8.45;;
38399;SDS011;24180;42.676;23.320;2024-02-26T06:48:31;18.73;;;8.25;;
38399;SDS011;24180;42.676;23.320;2024-02-26T06:50:57;18.67;;;10.10;;
38399;SDS011;24180;42.676;23.320;2024-02-26T06:53:22;17.15;;;8.80;;
38399;SDS011;24180;42.676;23.320;2024-02-26T06:55:48;19.08;;;8.82;;
38399;SDS011;24180;42.676;23.320;2024-02-26T06:58:15;17.30;;;9.43;;
38399;SDS011;24180;42.676;23.320;2024-02-26T07:00:40;15.95;;;9.20;;
38399;SDS011;24180;42.676;23.320;2024-02-26T07:03:06;20.10;;;9.68;;
38399;SDS011;24180;42.676;23.320;2024-02-26T07:05:31;16.20;;;9.80;;
38399;SDS011;24180;42.676;23.320;2024-02-26T07:07:57;21.67;;;9.65;;
38399;SDS011;24180;42.676;23.320;2024-02-26T07:10:22;18.67;;;10.43;;
38399;SDS011;24180;42.676;23.320;2024-02-26T07:12:48;20.38;;;11.18;;
38399;SDS011;24180;42.676;23.320;2024-02-26T07:15:13;22.58;;;11.23;;
38399;SDS011;24180;42.676;23.320;2024-02-26T07:17:39;26.85;;;12.00;;
38399;SDS011;24180;42.676;23.320;2024-02-26T07:20:07;21.02;;;11.68;;
38399;SDS011;24180;42.676;23.320;2024-02-26T07:22:34;25.80;;;12.52;;
38399;SDS011;24180;42.676;23.320;2024-02-26T07:24:59;23.98;;;12.85;;
38399;SDS011;24180;42.676;23.320;2024-02-26T07:27:24;33.28;;;12.52;;
38399;SDS011;24180;42.676;23.320;2024-02-26T07:29:50;26.10;;;12.20;;
38399;SDS011;24180;42.676;23.320;2024-02-26T07:32:16;23.58;;;12.40;;
38399;SDS011;24180;42.676;23.320;2024-02-26T07:34:41;24.27;;;12.98;;
38399;SDS011;24180;42.676;23.320;2024-02-26T07:37:09;24.85;;;11.75;;
38399;SDS011;24180;42.676;23.320;2024-02-26T07:39:35;22.23;;;12.38;;
38399;SDS011;24180;42.676;23.320;2024-02-26T07:42:01;23.15;;;11.75;;
38399;SDS011;24180;42.676;23.320;2024-02-26T07:44:27;32.90;;;13.07;;
38399;SDS011;24180;42.676;23.320;2024-02-26T07:46:53;23.52;;;13.48;;
38399;SDS011;24180;42.676;23.320;2024-02-26T07:49:18;26.67;;;13.35;;
38399;SDS011;24180;42.676;23.320;2024-02-26T07:51:44;20.85;;;11.73;;
38399;SDS011;24180;42.676;23.320;2024-02-26T07:54:09;26.98;;;12.60;;
38399;SDS011;24180;42.676;23.320;2024-02-26T07:56:34;20.50;;;12.00;;
38399;SDS011;24180;42.676;23.320;2024-02-26T07:59:00;23.17;;;11.90;;
38399;SDS011;24180;42.676;23.320;2024-02-26T08:01:25;21.95;;;11.68;;
38399;SDS011;24180;42.676;23.320;2024-02-26T08:03:52;23.75;;;13.27;;
38399;SDS011;24180;42.676;23.320;2024-02-26T08:06:18;26.50;;;13.70;;
38399;SDS011;24180;42.676;23.320;2024-02-26T08:08:43;30.50;;;16.23;;
38399;SDS011;24180;42.676;23.320;2024-02-26T08:11:09;33.80;;;14.98;;
38399;SDS011;24180;42.676;23.320;2024-02-26T08:13:34;30.27;;;14.63;;
38399;SDS011;24180;42.676;23.320;2024-02-26T08:16:01;43.63;;;13.25;;
38399;SDS011;24180;42.676;23.320;2024-02-26T08:18:26;27.13;;;9.82;;
38399;SDS011;24180;42.676;23.320;2024-02-26T08:20:52;23.35;;;8.38;;
38399;SDS011;24180;42.676;23.320;2024-02-26T08:23:17;10.23;;;6.70;;
38399;SDS011;24180;42.676;23.320;2024-02-26T08:25:43;15.07;;;8.10;;
38399;SDS011;24180;42.676;23.320;2024-02-26T08:28:08;15.18;;;7.38;;
38399;SDS011;24180;42.676;23.320;2024-02-26T08:30:36;13.68;;;6.18;;
38399;SDS011;24180;42.676;23.320;2024-02-26T08:33:01;9.57;;;6.00;;
38399;SDS011;24180;42.676;23.320;2024-02-26T08:35:27;19.77;;;6.20;;
38399;SDS011;24180;42.676;23.320;2024-02-26T08:37:52;15.27;;;5.72;;
38399;SDS011;24180;42.676;23.320;2024-02-26T08:40:18;8.23;;;5.80;;
38399;SDS011;24180;42.676;23.320;2024-02-26T08:42:44;23.92;;;6.57;;
38399;SDS011;24180;42.676;23.320;2024-02-26T08:45:10;15.93;;;6.80;;
38399;SDS011;24180;42.676;23.320;2024-02-26T08:47:37;25.13;;;7.40;;
38399;SDS011;24180;42.676;23.320;2024-02-26T08:50:03;17.92;;;6.68;;
38399;SDS011;24180;42.676;23.320;2024-02-26T08:54:55;9.70;;;5.00;;
38399;SDS011;24180;42.676;23.320;2024-02-26T08:57:20;5.68;;;5.18;;
38399;SDS011;24180;42.676;23.320;2024-02-26T08:59:46;6.13;;;4.82;;
38399;SDS011;24180;42.676;23.320;2024-02-26T09:02:11;8.85;;;5.63;;
38399;SDS011;24180;42.676;23.320;2024-02-26T09:04:37;6.00;;;5.22;;
38399;SDS011;24180;42.676;23.320;2024-02-26T09:07:02;10.82;;;5.50;;
38399;SDS011;24180;42.676;23.320;2024-02-26T09:09:28;8.50;;;6.18;;
38399;SDS011;24180;42.676;23.320;2024-02-26T09:11:53;9.52;;;5.20;;
38399;SDS011;24180;42.676;23.320;2024-02-26T09:14:20;14.88;;;6.57;;
38399;SDS011;24180;42.676;23.320;2024-02-26T09:16:46;11.60;;;5.50;;
38399;SDS011;24180;42.676;23.320;2024-02-26T09:19:13;9.20;;;5.20;;
38399;SDS011;24180;42.676;23.320;2024-02-26T09:21:43;5.22;;;4.82;;
38399;SDS011;24180;42.676;23.320;2024-02-26T09:24:09;9.48;;;4.78;;
38399;SDS011;24180;42.676;23.320;2024-02-26T09:26:36;7.82;;;5.68;;
38399;SDS011;24180;42.676;23.320;2024-02-26T09:29:01;7.53;;;5.32;;
38399;SDS011;24180;42.676;23.320;2024-02-26T09:31:27;6.78;;;4.60;;
38399;SDS011;24180;42.676;23.320;2024-02-26T09:33:52;7.15;;;5.22;;
38399;SDS011;24180;42.676;23.320;2024-02-26T09:36:18;7.50;;;4.65;;
38399;SDS011;24180;42.676;23.320;2024-02-26T09:38:43;9.13;;;5.00;;
38399;SDS011;24180;42.676;23.320;2024-02-26T09:41:12;8.23;;;5.40;;
38399;SDS011;24180;42.676;23.320;2024-02-26T09:43:40;9.82;;;4.93;;
38399;SDS011;24180;42.676;23.320;2024-02-26T09:46:08;8.95;;;4.38;;
38399;SDS011;24180;42.676;23.320;2024-02-26T09:48:34;7.20;;;4.13;;
38399;SDS011;24180;42.676;23.320;2024-02-26T09:51:02;4.70;;;3.88;;
38399;SDS011;24180;42.676;23.320;2024-02-26T09:53:29;11.45;;;3.67;;
38399;SDS011;24180;42.676;23.320;2024-02-26T09:55:58;5.15;;;4.00;;
38399;SDS011;24180;42.676;23.320;2024-02-26T09:58:24;9.93;;;4.45;;
38399;SDS011;24180;42.676;23.320;2024-02-26T10:00:53;10.18;;;4.25;;
38399;SDS011;24180;42.676;23.320;2024-02-26T10:03:25;5.95;;;4.38;;
38399;SDS011;24180;42.676;23.320;2024-02-26T10:05:54;14.52;;;4.65;;
38399;SDS011;24180;42.676;23.320;2024-02-26T10:08:22;5.07;;;4.22;;
38399;SDS011;24180;42.676;23.320;2024-02-26T10:10:48;3.90;;;3.60;;
38399;SDS011;24180;42.676;23.320;2024-02-26T10:13:15;6.38;;;4.20;;
38399;SDS011;24180;42.676;23.320;2024-02-26T10:15:40;4.20;;;3.90;;
38399;SDS011;24180;42.676;23.320;2024-02-26T10:18:06;4.80;;;3.78;;
38399;SDS011;24180;42.676;23.320;2024-02-26T10:20:32;5.35;;;3.92;;
38399;SDS011;24180;42.676;23.320;2024-02-26T10:22:58;6.30;;;3.28;;
38399;SDS011;24180;42.676;23.320;2024-02-26T10:25:27;4.60;;;4.13;;
38399;SDS011;24180;42.676;23.320;2024-02-26T10:27:52;5.45;;;3.90;;
38399;SDS011;24180;42.676;23.320;2024-02-26T10:32:47;4.85;;;4.18;;
38399;SDS011;24180;42.676;23.320;2024-02-26T10:35:14;4.63;;;3.65;;
38399;SDS011;24180;42.676;23.320;2024-02-26T10:37:43;4.60;;;3.78;;
38399;SDS011;24180;42.676;23.320;2024-02-26T10:40:12;4.50;;;3.80;;
38399;SDS011;24180;42.676;23.320;2024-02-26T10:42:39;4.47;;;3.85;;
38399;SDS011;24180;42.676;23.320;2024-02-26T10:45:05;4.07;;;3.70;;
38399;SDS011;24180;42.676;23.320;2024-02-26T10:47:32;9.75;;;4.07;;
38399;SDS011;24180;42.676;23.320;2024-02-26T10:49:59;8.05;;;4.60;;
38399;SDS011;24180;42.676;23.320;2024-02-26T10:52:26;5.47;;;3.80;;
38399;SDS011;24180;42.676;23.320;2024-02-26T10:54:53;4.13;;;3.72;;
38399;SDS011;24180;42.676;23.320;2024-02-26T10:57:22;4.30;;;3.83;;
38399;SDS011;24180;42.676;23.320;2024-02-26T10:59:49;4.47;;;3.88;;
38399;SDS011;24180;42.676;23.320;2024-02-26T11:02:17;6.68;;;4.18;;
38399;SDS011;24180;42.676;23.320;2024-02-26T11:04:43;6.43;;;4.00;;
38399;SDS011;24180;42.676;23.320;2024-02-26T11:07:10;20.60;;;5.75;;
38399;SDS011;24180;42.676;23.320;2024-02-26T11:09:37;5.53;;;4.13;;
38399;SDS011;24180;42.676;23.320;2024-02-26T11:12:08;4.60;;;3.40;;
38399;SDS011;24180;42.676;23.320;2024-02-26T11:14:37;4.50;;;4.10;;
38399;SDS011;24180;42.676;23.320;2024-02-26T11:17:04;5.00;;;3.80;;
38399;SDS011;24180;42.676;23.320;2024-02-26T11:19:32;4.43;;;3.90;;
38399;SDS011;24180;42.676;23.320;2024-02-26T11:22:00;4.65;;;3.97;;
38399;SDS011;24180;42.676;23.320;2024-02-26T11:24:26;3.90;;;3.60;;
38399;SDS011;24180;42.676;23.320;2024-02-26T11:26:53;5.40;;;4.05;;
38399;SDS011;24180;42.676;23.320;2024-02-26T11:29:24;4.43;;;3.70;;
38399;SDS011;24180;42.676;23.320;2024-02-26T11:31:52;4.45;;;3.80;;
38399;SDS011;24180;42.676;23.320;2024-02-26T11:34:18;4.50;;;3.95;;
38399;SDS011;24180;42.676;23.320;2024-02-26T11:36:45;5.60;;;4.55;;
38399;SDS011;24180;42.676;23.320;2024-02-26T11:39:11;13.10;;;4.25;;
38399;SDS011;24180;42.676;23.320;2024-02-26T11:41:38;69.10;;;10.02;;
38399;SDS011;24180;42.676;23.320;2024-02-26T11:44:04;5.45;;;3.97;;
38399;SDS011;24180;42.676;23.320;2024-02-26T11:51:55;6.10;;;4.03;;
38399;SDS011;24180;42.676;23.320;2024-02-26T11:54:43;8.13;;;3.72;;
38399;SDS011;24180;42.676;23.320;2024-02-26T11:57:28;8.27;;;4.07;;
38399;SDS011;24180;42.676;23.320;2024-02-26T12:02:44;3.55;;;3.25;;
38399;SDS011;24180;42.676;23.320;2024-02-26T12:05:17;4.63;;;4.05;;
38399;SDS011;24180;42.676;23.320;2024-02-26T12:08:00;5.55;;;3.13;;
38399;SDS011;24180;42.676;23.320;2024-02-26T12:10:28;3.55;;;3.22;;
38399;SDS011;24180;42.676;23.320;2024-02-26T12:13:02;7.75;;;3.25;;
38399;SDS011;24180;42.676;23.320;2024-02-26T12:15:45;5.70;;;2.97;;
38399;SDS011;24180;42.676;23.320;2024-02-26T12:18:19;6.80;;;3.42;;
38399;SDS011;24180;42.676;23.320;2024-02-26T12:20:46;4.20;;;3.40;;
38399;SDS011;24180;42.676;23.320;2024-02-26T12:23:15;10.68;;;3.60;;
38399;SDS011;24180;42.676;23.320;2024-02-26T12:25:44;3.25;;;3.05;;
38399;SDS011;24180;42.676;23.320;2024-02-26T12:28:13;3.25;;;2.95;;
38399;SDS011;24180;42.676;23.320;2024-02-26T12:30:39;6.60;;;3.10;;
38399;SDS011;24180;42.676;23.320;2024-02-26T12:33:04;7.90;;;3.50;;
38399;SDS011;24180;42.676;23.320;2024-02-26T12:35:31;4.75;;;3.20;;
38399;SDS011;24180;42.676;23.320;2024-02-26T12:37:57;5.78;;;3.40;;
38399;SDS011;24180;42.676;23.320;2024-02-26T12:40:23;7.10;;;3.03;;
38399;SDS011;24180;42.676;23.320;2024-02-26T12:42:49;3.60;;;3.30;;
38399;SDS011;24180;42.676;23.320;2024-02-26T12:45:15;3.17;;;2.88;;
38399;SDS011;24180;42.676;23.320;2024-02-26T12:50:07;3.67;;;3.10;;
38399;SDS011;24180;42.676;23.320;2024-02-26T12:52:34;14.13;;;3.90;;
38399;SDS011;24180;42.676;23.320;2024-02-26T12:55:01;7.18;;;3.33;;
38399;SDS011;24180;42.676;23.320;2024-02-26T12:57:29;3.40;;;3.20;;
38399;SDS011;24180;42.676;23.320;2024-02-26T12:59:59;3.40;;;2.90;;
38399;SDS011;24180;42.676;23.320;2024-02-26T13:02:26;3.33;;;3.00;;
38399;SDS011;24180;42.676;23.320;2024-02-26T13:04:52;4.20;;;3.58;;
38399;SDS011;24180;42.676;23.320;2024-02-26T13:07:19;3.75;;;3.45;;
38399;SDS011;24180;42.676;23.320;2024-02-26T13:09:46;3.30;;;3.10;;
38399;SDS011;24180;42.676;23.320;2024-02-26T13:12:12;3.13;;;2.92;;
38399;SDS011;24180;42.676;23.320;2024-02-26T13:14:38;3.60;;;3.30;;
38399;SDS011;24180;42.676;23.320;2024-02-26T13:17:04;4.47;;;3.30;;
38399;SDS011;24180;42.676;23.320;2024-02-26T13:19:29;9.25;;;2.83;;
38399;SDS011;24180;42.676;23.320;2024-02-26T13:21:55;6.03;;;3.30;;
38399;SDS011;24180;42.676;23.320;2024-02-26T13:24:21;4.13;;;3.03;;
38399;SDS011;24180;42.676;23.320;2024-02-26T13:26:53;4.55;;;2.70;;
38399;SDS011;24180;42.676;23.320;2024-02-26T13:29:19;3.80;;;2.67;;
38399;SDS011;24180;42.676;23.320;2024-02-26T13:31:45;6.82;;;3.08;;
38399;SDS011;24180;42.676;23.320;2024-02-26T13:34:22;6.38;;;3.15;;
38399;SDS011;24180;42.676;23.320;2024-02-26T13:36:49;5.70;;;3.05;;
38399;SDS011;24180;42.676;23.320;2024-02-26T13:39:20;21.30;;;4.38;;
38399;SDS011;24180;42.676;23.320;2024-02-26T13:41:47;23.25;;;4.70;;
38399;SDS011;24180;42.676;23.320;2024-02-26T13:44:12;8.98;;;3.45;;
38399;SDS011;24180;42.676;23.320;2024-02-26T13:46:38;30.77;;;5.57;;
38399;SDS011;24180;42.676;23.320;2024-02-26T13:51:33;3.47;;;3.25;;
38399;SDS011;24180;42.676;23.320;2024-02-26T13:54:00;6.20;;;3.03;;
38399;SDS011;24180;42.676;23.320;2024-02-26T13:56:26;3.20;;;2.75;;
38399;SDS011;24180;42.676;23.320;2024-02-26T13:58:51;3.17;;;2.63;;
38399;SDS011;24180;42.676;23.320;2024-02-26T14:01:17;4.28;;;3.00;;
38399;SDS011;24180;42.676;23.320;2024-02-26T14:03:42;2.75;;;2.55;;
38399;SDS011;24180;42.676;23.320;2024-02-26T14:06:08;9.45;;;3.10;;
38399;SDS011;24180;42.676;23.320;2024-02-26T14:08:34;6.40;;;3.20;;
38399;SDS011;24180;42.676;23.320;2024-02-26T14:10:59;2.92;;;2.72;;
38399;SDS011;24180;42.676;23.320;2024-02-26T14:13:25;5.60;;;3.38;;
38399;SDS011;24180;42.676;23.320;2024-02-26T14:15:51;2.63;;;2.47;;
38399;SDS011;24180;42.676;23.320;2024-02-26T14:18:16;5.07;;;3.13;;
38399;SDS011;24180;42.676;23.320;2024-02-26T14:20:42;6.72;;;2.70;;
38399;SDS011;24180;42.676;23.320;2024-02-26T14:23:09;4.47;;;2.63;;
38399;SDS011;24180;42.676;23.320;2024-02-26T14:25:35;3.30;;;2.75;;
38399;SDS011;24180;42.676;23.320;2024-02-26T14:28:01;3.10;;;2.40;;
38399;SDS011;24180;42.676;23.320;2024-02-26T14:30:27;4.60;;;2.92;;
38399;SDS011;24180;42.676;23.320;2024-02-26T14:32:53;3.90;;;3.15;;
38399;SDS011;24180;42.676;23.320;2024-02-26T14:35:18;5.90;;;2.97;;